Norris City, IL

9:42 AM CST on December 29, 2014 (GMT -0600)
Carmi Municipal | Change Station
CLOSE
Current Station
Airport
Location: Carmi,
Elevation: 387 ft
Nearby Weather Stations

Elev 387 ft 38.09 °N, 88.12 °W | Updated 7 minutes ago

Mostly Cloudy
Mostly Cloudy
32 °F
Feels Like 24 °F
N
8
Wind Variable Wind from NE

Today
High -- | Low -- °F
--% Chance of Precip.
Yesterday
High -- | Low -- °F
Precip. -- in
7:08 AM 4:42 PM
First Quarter, 60% visible
Pressure 30.32 in
Visibility 7.0 miles
Clouds Overcast 1300 ft
Windchill 24 °F
Dew Point 30 °F
Humidity 94%
Rainfall 0.00 in
Snow Depth Not available.
UV 0 out of 12
Pollen .30 out of 12
Air Quality Not available.
Flu Activity Not available.
METAR KCUL 291535Z AUTO 04007KT 7SM OVC013 00/M01 A3032 RMK AO2 T10031011

More Conditions Fewer Conditions

Pressure 30.32 in
Visibility 7.0 miles
Clouds Overcast 1300 ft
Windchill 24 °F
Dew Point 30 °F
Humidity 94%
Rainfall 0.00 in
Snow Depth Not available.
UV 0 out of 12
Pollen .30 out of 12
Air Quality Not available.
Flu Activity Not available.
METAR KCUL 291535Z AUTO 04007KT 7SM OVC013 00/M01 A3032 RMK AO2 T10031011

More Conditions Fewer Conditions

10-Day Weather Forecast

Almanac

Astronomy

Dec. 29, 2014 Rise Set
Actual Time
Civil Twilight
Nautical Twilight
Astronomical Twilight
Moon
Length of Visible Light
Length of Day
Tomorrow will be .
, % of the Moon is Illuminated

Today's Extremes

State Highs State Lows

Community

WunderPhotos

Upload Photos

1,781,617 photos uploaded!

WunderBlogs® & News

Nearby

Air Quality

  Air Quality AQ Index Pollutant
Not available.

Snow Depth

Station Depth Elevation

Earthquake Activity

City Distance Mag. Time & Date
Minimum magnitude displayed is 2.5.

Coastal Water Temperatures

Place Temperature

Nearby Weather Stations